sensor_id;sensor_type;location;lat;lon;timestamp;temperature;humidity
16313;DHT22;8265;52.622;13.296;2024-02-04T00:03:57;6.60;84.60
16313;DHT22;8265;52.622;13.296;2024-02-04T00:09:18;6.60;83.80
16313;DHT22;8265;52.622;13.296;2024-02-04T00:14:39;6.70;83.30
16313;DHT22;8265;52.622;13.296;2024-02-04T00:20:00;6.70;82.20
16313;DHT22;8265;52.622;13.296;2024-02-04T00:25:21;6.70;82.50
16313;DHT22;8265;52.622;13.296;2024-02-04T00:30:42;6.60;82.70
16313;DHT22;8265;52.622;13.296;2024-02-04T00:36:03;6.50;82.50
16313;DHT22;8265;52.622;13.296;2024-02-04T00:41:24;6.50;82.10
16313;DHT22;8265;52.622;13.296;2024-02-04T00:46:45;6.20;82.50
16313;DHT22;8265;52.622;13.296;2024-02-04T00:52:06;6.20;82.60
16313;DHT22;8265;52.622;13.296;2024-02-04T00:57:27;6.10;82.80
16313;DHT22;8265;52.622;13.296;2024-02-04T01:02:48;6.00;82.80
16313;DHT22;8265;52.622;13.296;2024-02-04T01:08:09;5.90;82.60
16313;DHT22;8265;52.622;13.296;2024-02-04T01:13:30;5.80;82.30
16313;DHT22;8265;52.622;13.296;2024-02-04T01:18:51;5.60;82.90
16313;DHT22;8265;52.622;13.296;2024-02-04T01:24:12;5.70;82.80
16313;DHT22;8265;52.622;13.296;2024-02-04T01:29:33;5.70;82.50
16313;DHT22;8265;52.622;13.296;2024-02-04T01:34:54;5.60;83.20
16313;DHT22;8265;52.622;13.296;2024-02-04T01:40:15;5.50;83.20
16313;DHT22;8265;52.622;13.296;2024-02-04T01:45:36;5.40;83.60
16313;DHT22;8265;52.622;13.296;2024-02-04T01:50:57;5.20;84.30
16313;DHT22;8265;52.622;13.296;2024-02-04T01:56:18;5.10;85.00
16313;DHT22;8265;52.622;13.296;2024-02-04T02:01:39;5.00;85.30
16313;DHT22;8265;52.622;13.296;2024-02-04T02:07:00;5.00;85.80
16313;DHT22;8265;52.622;13.296;2024-02-04T02:12:25;5.00;85.90
16313;DHT22;8265;52.622;13.296;2024-02-04T02:17:48;4.90;86.40
16313;DHT22;8265;52.622;13.296;2024-02-04T02:23:06;4.90;87.00
16313;DHT22;8265;52.622;13.296;2024-02-04T02:28:24;4.90;87.00
16313;DHT22;8265;52.622;13.296;2024-02-04T02:33:45;4.90;87.30
16313;DHT22;8265;52.622;13.296;2024-02-04T02:39:17;4.90;87.50
16313;DHT22;8265;52.622;13.296;2024-02-04T02:44:27;4.90;87.30
16313;DHT22;8265;52.622;13.296;2024-02-04T02:49:50;5.00;86.70
16313;DHT22;8265;52.622;13.296;2024-02-04T02:55:09;5.20;86.30
16313;DHT22;8265;52.622;13.296;2024-02-04T03:00:30;5.30;86.20
16313;DHT22;8265;52.622;13.296;2024-02-04T03:05:51;5.50;85.90
16313;DHT22;8265;52.622;13.296;2024-02-04T03:11:12;5.50;85.40
16313;DHT22;8265;52.622;13.296;2024-02-04T03:16:33;5.60;85.40
16313;DHT22;8265;52.622;13.296;2024-02-04T03:21:54;5.60;85.00
16313;DHT22;8265;52.622;13.296;2024-02-04T03:27:18;5.60;85.10
16313;DHT22;8265;52.622;13.296;2024-02-04T03:32:36;5.70;85.20
16313;DHT22;8265;52.622;13.296;2024-02-04T03:37:57;5.80;85.30
16313;DHT22;8265;52.622;13.296;2024-02-04T03:43:18;5.80;85.40
16313;DHT22;8265;52.622;13.296;2024-02-04T03:48:39;5.80;85.40
16313;DHT22;8265;52.622;13.296;2024-02-04T03:54:00;5.80;85.40
16313;DHT22;8265;52.622;13.296;2024-02-04T03:59:21;5.70;85.60
16313;DHT22;8265;52.622;13.296;2024-02-04T04:04:42;5.70;85.40
16313;DHT22;8265;52.622;13.296;2024-02-04T04:10:03;5.70;85.00
16313;DHT22;8265;52.622;13.296;2024-02-04T04:15:24;5.60;85.00
16313;DHT22;8265;52.622;13.296;2024-02-04T04:20:45;5.60;84.80
16313;DHT22;8265;52.622;13.296;2024-02-04T04:26:06;5.50;85.00
16313;DHT22;8265;52.622;13.296;2024-02-04T04:31:27;5.60;85.00
16313;DHT22;8265;52.622;13.296;2024-02-04T04:36:48;5.50;84.60
16313;DHT22;8265;52.622;13.296;2024-02-04T04:42:09;5.50;84.50
16313;DHT22;8265;52.622;13.296;2024-02-04T04:47:30;5.50;84.90
16313;DHT22;8265;52.622;13.296;2024-02-04T04:52:51;5.60;84.40
16313;DHT22;8265;52.622;13.296;2024-02-04T04:58:12;5.60;84.40
16313;DHT22;8265;52.622;13.296;2024-02-04T05:03:33;5.60;84.10
16313;DHT22;8265;52.622;13.296;2024-02-04T05:08:54;5.50;84.40
16313;DHT22;8265;52.622;13.296;2024-02-04T05:14:15;5.40;84.50
16313;DHT22;8265;52.622;13.296;2024-02-04T05:19:36;5.40;84.70
16313;DHT22;8265;52.622;13.296;2024-02-04T05:24:57;5.30;84.60
16313;DHT22;8265;52.622;13.296;2024-02-04T05:30:18;5.30;84.60
16313;DHT22;8265;52.622;13.296;2024-02-04T05:35:38;5.50;84.10
16313;DHT22;8265;52.622;13.296;2024-02-04T05:41:00;5.30;84.40
16313;DHT22;8265;52.622;13.296;2024-02-04T05:46:21;5.30;84.00
16313;DHT22;8265;52.622;13.296;2024-02-04T05:51:42;5.10;84.20
16313;DHT22;8265;52.622;13.296;2024-02-04T05:57:03;5.00;83.90
16313;DHT22;8265;52.622;13.296;2024-02-04T06:02:24;5.00;83.60
16313;DHT22;8265;52.622;13.296;2024-02-04T06:07:45;5.10;83.70
16313;DHT22;8265;52.622;13.296;2024-02-04T06:13:05;5.00;83.50
16313;DHT22;8265;52.622;13.296;2024-02-04T06:18:27;5.30;83.00
16313;DHT22;8265;52.622;13.296;2024-02-04T06:23:47;5.30;83.20
16313;DHT22;8265;52.622;13.296;2024-02-04T06:29:08;5.20;83.40
16313;DHT22;8265;52.622;13.296;2024-02-04T06:34:29;5.20;83.40
16313;DHT22;8265;52.622;13.296;2024-02-04T06:39:51;5.10;83.90
16313;DHT22;8265;52.622;13.296;2024-02-04T06:45:12;5.10;84.60
16313;DHT22;8265;52.622;13.296;2024-02-04T06:50:32;5.20;84.50
16313;DHT22;8265;52.622;13.296;2024-02-04T06:55:53;5.10;84.80
16313;DHT22;8265;52.622;13.296;2024-02-04T07:01:14;5.10;85.30
16313;DHT22;8265;52.622;13.296;2024-02-04T07:06:35;5.10;85.00
16313;DHT22;8265;52.622;13.296;2024-02-04T07:12:00;5.20;85.30
16313;DHT22;8265;52.622;13.296;2024-02-04T07:17:21;5.20;85.30
16313;DHT22;8265;52.622;13.296;2024-02-04T07:22:42;5.10;85.80
16313;DHT22;8265;52.622;13.296;2024-02-04T07:28:03;5.30;85.30
16313;DHT22;8265;52.622;13.296;2024-02-04T07:33:55;5.30;85.70
16313;DHT22;8265;52.622;13.296;2024-02-04T07:39:16;5.20;86.00
16313;DHT22;8265;52.622;13.296;2024-02-04T07:44:37;5.30;86.10
16313;DHT22;8265;52.622;13.296;2024-02-04T07:49:58;5.40;85.60
16313;DHT22;8265;52.622;13.296;2024-02-04T07:55:19;5.30;85.50
16313;DHT22;8265;52.622;13.296;2024-02-04T08:00:40;5.50;84.90
16313;DHT22;8265;52.622;13.296;2024-02-04T08:06:01;5.60;84.50
16313;DHT22;8265;52.622;13.296;2024-02-04T08:11:22;5.80;84.10
16313;DHT22;8265;52.622;13.296;2024-02-04T08:16:43;5.90;83.10
16313;DHT22;8265;52.622;13.296;2024-02-04T08:22:04;6.00;82.90
16313;DHT22;8265;52.622;13.296;2024-02-04T08:27:25;6.20;82.00
16313;DHT22;8265;52.622;13.296;2024-02-04T08:32:46;6.20;81.50
16313;DHT22;8265;52.622;13.296;2024-02-04T08:38:07;6.30;81.50
16313;DHT22;8265;52.622;13.296;2024-02-04T08:43:28;6.40;80.30
16313;DHT22;8265;52.622;13.296;2024-02-04T08:48:49;6.50;80.00
16313;DHT22;8265;52.622;13.296;2024-02-04T08:54:10;6.60;78.80
16313;DHT22;8265;52.622;13.296;2024-02-04T08:59:31;6.50;79.10
16313;DHT22;8265;52.622;13.296;2024-02-04T09:04:52;6.60;78.60
16313;DHT22;8265;52.622;13.296;2024-02-04T09:10:13;6.60;78.00
16313;DHT22;8265;52.622;13.296;2024-02-04T09:15:34;6.70;77.10
16313;DHT22;8265;52.622;13.296;2024-02-04T09:20:55;6.80;77.00
16313;DHT22;8265;52.622;13.296;2024-02-04T09:26:16;6.80;77.30
16313;DHT22;8265;52.622;13.296;2024-02-04T09:31:37;6.90;76.40
16313;DHT22;8265;52.622;13.296;2024-02-04T09:36:58;6.90;76.50
16313;DHT22;8265;52.622;13.296;2024-02-04T09:42:19;7.00;76.10
16313;DHT22;8265;52.622;13.296;2024-02-04T09:47:40;7.00;76.50
16313;DHT22;8265;52.622;13.296;2024-02-04T09:53:01;7.00;75.50
16313;DHT22;8265;52.622;13.296;2024-02-04T09:58:22;7.10;75.00
16313;DHT22;8265;52.622;13.296;2024-02-04T10:03:43;7.20;73.90
16313;DHT22;8265;52.622;13.296;2024-02-04T10:09:04;7.20;73.90
16313;DHT22;8265;52.622;13.296;2024-02-04T10:14:25;7.20;73.80
16313;DHT22;8265;52.622;13.296;2024-02-04T10:19:48;7.20;73.90
16313;DHT22;8265;52.622;13.296;2024-02-04T10:25:10;7.40;73.20
16313;DHT22;8265;52.622;13.296;2024-02-04T10:30:28;7.50;71.80
16313;DHT22;8265;52.622;13.296;2024-02-04T10:35:49;7.50;71.50
16313;DHT22;8265;52.622;13.296;2024-02-04T10:41:11;7.60;71.10
16313;DHT22;8265;52.622;13.296;2024-02-04T10:46:31;7.50;70.90
16313;DHT22;8265;52.622;13.296;2024-02-04T10:51:53;7.70;70.70
16313;DHT22;8265;52.622;13.296;2024-02-04T10:57:13;7.60;70.10
16313;DHT22;8265;52.622;13.296;2024-02-04T11:02:34;7.60;70.30
16313;DHT22;8265;52.622;13.296;2024-02-04T11:07:55;7.60;70.00
16313;DHT22;8265;52.622;13.296;2024-02-04T11:13:16;7.60;70.20
16313;DHT22;8265;52.622;13.296;2024-02-04T11:18:53;7.60;70.00
16313;DHT22;8265;52.622;13.296;2024-02-04T11:24:03;7.50;70.00
16313;DHT22;8265;52.622;13.296;2024-02-04T11:29:19;7.50;70.30
16313;DHT22;8265;52.622;13.296;2024-02-04T11:34:40;7.40;70.30
16313;DHT22;8265;52.622;13.296;2024-02-04T11:40:03;7.40;70.10
16313;DHT22;8265;52.622;13.296;2024-02-04T11:45:22;7.40;69.80
16313;DHT22;8265;52.622;13.296;2024-02-04T11:50:43;7.40;69.80
16313;DHT22;8265;52.622;13.296;2024-02-04T11:56:04;7.50;69.50
16313;DHT22;8265;52.622;13.296;2024-02-04T12:01:24;7.60;68.90
16313;DHT22;8265;52.622;13.296;2024-02-04T12:06:45;7.60;69.20
16313;DHT22;8265;52.622;13.296;2024-02-04T12:12:07;7.50;69.20
16313;DHT22;8265;52.622;13.296;2024-02-04T12:17:28;7.40;69.60
16313;DHT22;8265;52.622;13.296;2024-02-04T12:22:49;7.40;70.10
16313;DHT22;8265;52.622;13.296;2024-02-04T12:28:10;7.40;69.90
16313;DHT22;8265;52.622;13.296;2024-02-04T12:33:30;7.40;69.20
16313;DHT22;8265;52.622;13.296;2024-02-04T12:38:52;7.40;69.20
16313;DHT22;8265;52.622;13.296;2024-02-04T12:44:17;7.40;69.20
16313;DHT22;8265;52.622;13.296;2024-02-04T12:49:33;7.50;69.20
16313;DHT22;8265;52.622;13.296;2024-02-04T12:54:54;7.50;69.10
16313;DHT22;8265;52.622;13.296;2024-02-04T13:00:18;7.40;69.30
16313;DHT22;8265;52.622;13.296;2024-02-04T13:05:37;7.40;68.80
16313;DHT22;8265;52.622;13.296;2024-02-04T13:10:58;7.50;68.40
16313;DHT22;8265;52.622;13.296;2024-02-04T13:16:18;7.50;68.60
16313;DHT22;8265;52.622;13.296;2024-02-04T13:21:39;7.40;68.80
16313;DHT22;8265;52.622;13.296;2024-02-04T13:27:00;7.40;68.90
16313;DHT22;8265;52.622;13.296;2024-02-04T13:32:21;7.40;68.80
16313;DHT22;8265;52.622;13.296;2024-02-04T13:37:43;7.40;68.90
16313;DHT22;8265;52.622;13.296;2024-02-04T13:43:03;7.30;69.00
16313;DHT22;8265;52.622;13.296;2024-02-04T13:48:24;7.30;69.40
16313;DHT22;8265;52.622;13.296;2024-02-04T13:53:45;7.30;69.70
16313;DHT22;8265;52.622;13.296;2024-02-04T13:59:06;7.30;69.80
16313;DHT22;8265;52.622;13.296;2024-02-04T14:04:27;7.30;69.20
16313;DHT22;8265;52.622;13.296;2024-02-04T14:09:48;7.30;69.70
16313;DHT22;8265;52.622;13.296;2024-02-04T14:15:09;7.20;70.30
16313;DHT22;8265;52.622;13.296;2024-02-04T14:20:30;7.30;70.00
16313;DHT22;8265;52.622;13.296;2024-02-04T14:25:51;7.40;69.90
16313;DHT22;8265;52.622;13.296;2024-02-04T14:31:12;7.40;70.20
16313;DHT22;8265;52.622;13.296;2024-02-04T14:36:33;7.30;70.40
16313;DHT22;8265;52.622;13.296;2024-02-04T14:41:54;7.40;70.30
16313;DHT22;8265;52.622;13.296;2024-02-04T14:47:15;7.40;70.40
16313;DHT22;8265;52.622;13.296;2024-02-04T14:52:36;7.40;70.00
16313;DHT22;8265;52.622;13.296;2024-02-04T14:57:57;7.40;70.30
16313;DHT22;8265;52.622;13.296;2024-02-04T15:03:18;7.40;70.10
16313;DHT22;8265;52.622;13.296;2024-02-04T15:08:39;7.50;70.20
16313;DHT22;8265;52.622;13.296;2024-02-04T15:14:00;7.50;70.20
16313;DHT22;8265;52.622;13.296;2024-02-04T15:19:22;7.50;70.20
16313;DHT22;8265;52.622;13.296;2024-02-04T15:24:42;7.40;70.70
16313;DHT22;8265;52.622;13.296;2024-02-04T15:30:03;7.40;70.40
16313;DHT22;8265;52.622;13.296;2024-02-04T15:35:24;7.40;70.30
16313;DHT22;8265;52.622;13.296;2024-02-04T15:40:45;7.50;70.30
16313;DHT22;8265;52.622;13.296;2024-02-04T15:46:09;7.40;70.20
16313;DHT22;8265;52.622;13.296;2024-02-04T15:51:27;7.40;70.50
16313;DHT22;8265;52.622;13.296;2024-02-04T15:56:54;7.50;70.10
16313;DHT22;8265;52.622;13.296;2024-02-04T16:02:09;7.40;70.20
16313;DHT22;8265;52.622;13.296;2024-02-04T16:07:30;7.40;70.50
16313;DHT22;8265;52.622;13.296;2024-02-04T16:12:57;7.40;70.60
16313;DHT22;8265;52.622;13.296;2024-02-04T16:18:12;7.40;70.30
16313;DHT22;8265;52.622;13.296;2024-02-04T16:23:33;7.40;70.70
16313;DHT22;8265;52.622;13.296;2024-02-04T16:28:54;7.40;70.70
16313;DHT22;8265;52.622;13.296;2024-02-04T16:34:15;7.40;70.60
16313;DHT22;8265;52.622;13.296;2024-02-04T16:39:36;7.40;70.80
16313;DHT22;8265;52.622;13.296;2024-02-04T16:44:57;7.50;70.60
16313;DHT22;8265;52.622;13.296;2024-02-04T16:50:18;7.50;70.70
16313;DHT22;8265;52.622;13.296;2024-02-04T16:55:39;7.50;70.70
16313;DHT22;8265;52.622;13.296;2024-02-04T17:01:00;7.50;70.80
16313;DHT22;8265;52.622;13.296;2024-02-04T17:06:21;7.50;71.50
16313;DHT22;8265;52.622;13.296;2024-02-04T17:11:45;7.50;71.10
16313;DHT22;8265;52.622;13.296;2024-02-04T17:17:07;7.50;71.20
16313;DHT22;8265;52.622;13.296;2024-02-04T17:22:24;7.50;71.10
16313;DHT22;8265;52.622;13.296;2024-02-04T17:27:45;7.50;71.00
16313;DHT22;8265;52.622;13.296;2024-02-04T17:33:06;7.50;71.00
16313;DHT22;8265;52.622;13.296;2024-02-04T17:38:27;7.50;71.20
16313;DHT22;8265;52.622;13.296;2024-02-04T17:43:48;7.50;71.40
16313;DHT22;8265;52.622;13.296;2024-02-04T17:49:09;7.50;71.50
16313;DHT22;8265;52.622;13.296;2024-02-04T17:54:31;7.50;71.50
16313;DHT22;8265;52.622;13.296;2024-02-04T17:59:51;7.50;72.00
16313;DHT22;8265;52.622;13.296;2024-02-04T18:05:12;7.50;72.10
16313;DHT22;8265;52.622;13.296;2024-02-04T18:10:33;7.50;72.20
16313;DHT22;8265;52.622;13.296;2024-02-04T18:15:53;7.50;72.50
16313;DHT22;8265;52.622;13.296;2024-02-04T18:21:18;7.40;72.60
16313;DHT22;8265;52.622;13.296;2024-02-04T18:26:35;7.40;73.20
16313;DHT22;8265;52.622;13.296;2024-02-04T18:31:56;7.40;73.80
16313;DHT22;8265;52.622;13.296;2024-02-04T18:37:17;7.20;74.30
16313;DHT22;8265;52.622;13.296;2024-02-04T18:42:38;7.20;74.80
16313;DHT22;8265;52.622;13.296;2024-02-04T18:47:59;7.20;75.00
16313;DHT22;8265;52.622;13.296;2024-02-04T18:53:20;7.20;75.50
16313;DHT22;8265;52.622;13.296;2024-02-04T18:58:42;7.20;75.70
16313;DHT22;8265;52.622;13.296;2024-02-04T19:04:02;7.20;76.00
16313;DHT22;8265;52.622;13.296;2024-02-04T19:09:23;7.10;76.70
16313;DHT22;8265;52.622;13.296;2024-02-04T19:14:44;7.00;76.80
16313;DHT22;8265;52.622;13.296;2024-02-04T19:20:06;7.00;76.70
16313;DHT22;8265;52.622;13.296;2024-02-04T19:25:26;7.00;76.60
16313;DHT22;8265;52.622;13.296;2024-02-04T19:30:47;7.10;76.80
16313;DHT22;8265;52.622;13.296;2024-02-04T19:36:09;7.10;77.10
16313;DHT22;8265;52.622;13.296;2024-02-04T19:41:29;7.10;78.10
16313;DHT22;8265;52.622;13.296;2024-02-04T19:46:50;7.00;78.30
16313;DHT22;8265;52.622;13.296;2024-02-04T19:52:11;7.00;78.70
16313;DHT22;8265;52.622;13.296;2024-02-04T19:57:32;7.00;79.50
16313;DHT22;8265;52.622;13.296;2024-02-04T20:02:53;7.00;79.00
16313;DHT22;8265;52.622;13.296;2024-02-04T20:08:14;7.00;79.60
16313;DHT22;8265;52.622;13.296;2024-02-04T20:13:35;7.00;79.60
16313;DHT22;8265;52.622;13.296;2024-02-04T20:18:56;7.00;80.10
16313;DHT22;8265;52.622;13.296;2024-02-04T20:24:17;7.00;80.30
16313;DHT22;8265;52.622;13.296;2024-02-04T20:29:38;6.90;80.70
16313;DHT22;8265;52.622;13.296;2024-02-04T20:34:59;7.00;80.70
16313;DHT22;8265;52.622;13.296;2024-02-04T20:40:20;6.80;82.10
16313;DHT22;8265;52.622;13.296;2024-02-04T20:45:41;6.80;83.00
16313;DHT22;8265;52.622;13.296;2024-02-04T20:51:02;6.60;84.20
16313;DHT22;8265;52.622;13.296;2024-02-04T20:56:23;6.50;85.40
16313;DHT22;8265;52.622;13.296;2024-02-04T21:01:47;6.40;86.70
16313;DHT22;8265;52.622;13.296;2024-02-04T21:07:05;6.30;87.70
16313;DHT22;8265;52.622;13.296;2024-02-04T21:12:26;6.20;88.90
16313;DHT22;8265;52.622;13.296;2024-02-04T21:17:47;6.10;89.90
16313;DHT22;8265;52.622;13.296;2024-02-04T21:23:08;6.00;90.30
16313;DHT22;8265;52.622;13.296;2024-02-04T21:28:29;6.00;90.90
16313;DHT22;8265;52.622;13.296;2024-02-04T21:33:50;5.90;91.40
16313;DHT22;8265;52.622;13.296;2024-02-04T21:39:11;5.80;92.30
16313;DHT22;8265;52.622;13.296;2024-02-04T21:44:32;5.70;93.30
16313;DHT22;8265;52.622;13.296;2024-02-04T21:49:53;5.70;93.50
16313;DHT22;8265;52.622;13.296;2024-02-04T21:55:14;5.70;93.70
16313;DHT22;8265;52.622;13.296;2024-02-04T22:00:35;5.70;94.20
16313;DHT22;8265;52.622;13.296;2024-02-04T22:05:56;5.80;94.20
16313;DHT22;8265;52.622;13.296;2024-02-04T22:11:17;5.80;94.50
16313;DHT22;8265;52.622;13.296;2024-02-04T22:16:41;5.70;94.70
16313;DHT22;8265;52.622;13.296;2024-02-04T22:21:59;5.80;94.60
16313;DHT22;8265;52.622;13.296;2024-02-04T22:27:20;5.70;95.10
16313;DHT22;8265;52.622;13.296;2024-02-04T22:32:41;5.70;95.80
16313;DHT22;8265;52.622;13.296;2024-02-04T22:38:02;5.70;96.20
16313;DHT22;8265;52.622;13.296;2024-02-04T22:43:23;5.70;96.50
16313;DHT22;8265;52.622;13.296;2024-02-04T22:48:44;5.70;96.50
16313;DHT22;8265;52.622;13.296;2024-02-04T22:54:05;5.70;97.00
16313;DHT22;8265;52.622;13.296;2024-02-04T22:59:26;5.70;97.10
16313;DHT22;8265;52.622;13.296;2024-02-04T23:04:47;5.70;97.50
16313;DHT22;8265;52.622;13.296;2024-02-04T23:10:35;5.70;97.70
16313;DHT22;8265;52.622;13.296;2024-02-04T23:15:29;5.80;97.70
16313;DHT22;8265;52.622;13.296;2024-02-04T23:20:50;5.80;97.80
16313;DHT22;8265;52.622;13.296;2024-02-04T23:26:11;5.80;97.80
16313;DHT22;8265;52.622;13.296;2024-02-04T23:31:32;5.80;98.10
16313;DHT22;8265;52.622;13.296;2024-02-04T23:36:53;5.80;98.30
16313;DHT22;8265;52.622;13.296;2024-02-04T23:42:14;5.90;98.30
16313;DHT22;8265;52.622;13.296;2024-02-04T23:47:35;6.00;98.00
16313;DHT22;8265;52.622;13.296;2024-02-04T23:52:56;5.90;97.70
16313;DHT22;8265;52.622;13.296;2024-02-04T23:58:17;5.90;98.10
